Latest Weather Observations for Beaudesert AWS

IDQ60801

Issued at 11:32 pm EST Wednesday 28 September 2016 (issued every 30 minutes, with the page automatically refreshed every 10 minutes)

About weather observations | Map of weather stations | Latest weather observations for QLD | Other Formats
Station Details ID: 040983 Name: BEAUDESERT DRUMLEY STREET Lat: -27.97 Lon: 152.99 Height: 47.81 m
Data from the previous 72 hours. | See also: Recent months at Beaudesert AWS
Date/Time
EST
Temp
°C
App
Temp
°C
Dew
Point
°C
Rel
Hum
%
Delta-T
°C
Wind Press
QNH
hPa
Press
MSL
hPa
Rain since
9am
mm
Dir  Spd
km/h
Gust
km/h
Spd
kts
Gust
kts
28/11:30pm 16.1 17.1 13.2 83 1.6 CALM 0 0 0 0 1012.6 1012.5 0.0
28/11:00pm 15.9 16.8 13.0 83 1.6 CALM 0 0 0 0 1012.8 1012.7 0.0
28/10:30pm 16.1 17.0 13.0 82 1.7 CALM 0 0 0 0 1012.9 1012.8 0.0
28/10:00pm 16.5 17.4 13.0 80 2.0 CALM 0 0 0 0 1013.0 1012.9 0.0
28/09:30pm 17.5 18.2 13.4 77 2.3 E 2 4 1 2 1013.0 1012.9 0.0
28/09:00pm 17.4 18.0 13.1 76 2.4 SW 2 4 1 2 1013.2 1013.1 0.0
28/08:30pm 17.7 18.2 12.8 73 2.7 SE 2 4 1 2 1013.0 1012.9 0.0
28/08:00pm 17.8 18.3 12.9 73 2.7 ESE 2 4 1 2 1012.8 1012.7 0.0
28/07:30pm 18.4 18.5 12.6 69 3.2 E 4 9 2 5 1012.6 1012.5 0.0
28/07:00pm 18.9 19.1 12.9 68 3.4 ENE 4 9 2 5 1012.6 1012.5 0.0
28/06:30pm 19.0 18.6 12.5 66 3.6 ENE 6 9 3 5 1012.3 1012.2 0.0
28/06:00pm 20.0 19.1 12.7 63 4.1 NE 9 20 5 11 1011.9 1011.8 0.0
28/05:30pm 20.6 20.1 12.6 60 4.5 NE 7 17 4 9 1011.3 1011.2 0.0
28/05:00pm 21.5 20.2 12.4 56 5.2 NE 11 20 6 11 1011.0 1010.9 0.0
28/04:30pm 22.6 21.1 12.0 51 6.0 NE 11 22 6 12 1010.4 1010.3 0.0
28/04:00pm 23.8 21.9 10.5 43 7.4 ENE 11 22 6 12 1010.1 1010.0 0.0
28/03:30pm 24.4 21.3 8.8 37 8.4 ENE 15 24 8 13 1009.8 1009.7 0.0
28/03:00pm 25.1 21.6 8.6 35 8.9 ENE 17 28 9 15 1009.6 1009.5 0.0
28/02:30pm 25.8 22.2 8.3 33 9.4 ENE 17 26 9 14 1009.7 1009.6 0.0
28/02:00pm 27.0 25.1 6.9 28 10.6 NW 6 9 3 5 1010.1 1010.0 0.0
28/01:30pm 27.2 25.3 6.6 27 10.9 NNW 6 13 3 7 1010.7 1010.6 0.0
28/01:00pm 26.7 24.7 7.2 29 10.4 NW 7 13 4 7 1011.1 1011.0 0.0
28/12:30pm 26.2 24.2 8.7 33 9.5 WNW 9 17 5 9 1011.5 1011.4 0.0
28/12:00pm 25.8 23.5 5.9 28 10.3 SSW 7 11 4 6 1012.0 1011.9 0.0
28/11:30am 25.9 24.1 7.0 30 10.0 SW 6 13 3 7 1012.4 1012.3 0.0
28/11:00am 25.1 23.0 6.8 31 9.6 SW 7 15 4 8 1013.1 1013.0 0.0
28/10:30am 24.1 21.6 6.4 32 9.1 S 9 19 5 10 1013.5 1013.4 0.0
28/10:00am 23.7 22.1 8.2 37 8.2 NNE 6 11 3 6 1013.7 1013.6 0.0
28/09:30am 22.6 21.4 8.0 39 7.7 SSE 4 9 2 5 1013.9 1013.8 0.0
28/09:00am 20.3 19.2 9.8 51 5.6 NW 6 9 3 5 1014.1 1014.0 0.0
28/08:30am 18.6 17.6 10.4 59 4.4 NNW 6 9 3 5 1014.2 1014.1 0.0
28/08:00am 16.2 15.6 10.5 69 3.0 NW 4 7 2 4 1014.1 1014.0 0.0
28/07:30am 13.8 13.7 9.3 74 2.3 CALM 0 2 0 1 1014.0 1013.9 0.0
28/07:00am 12.7 12.5 9.0 78 1.9 CALM 0 0 0 0 1013.7 1013.6 0.0
28/06:30am 10.1 8.9 8.0 87 1.0 SSE 4 6 2 3 1013.2 1013.1 0.0
28/06:00am 7.4 6.6 6.5 94 0.4 CALM 0 0 0 0 1013.0 1012.9 0.0
28/05:30am 7.5 6.5 5.6 88 0.9 CALM 0 0 0 0 1012.7 1012.6 0.0
28/05:00am 9.0 7.6 7.1 88 0.9 ESE 4 4 2 2 1012.3 1012.2 0.0
28/04:30am 8.4 6.9 7.0 91 0.7 ESE 4 6 2 3 1011.9 1011.8 0.0
28/04:00am 8.1 7.4 6.9 92 0.6 CALM 0 0 0 0 1011.7 1011.6 0.0
28/03:30am 7.5 6.5 5.6 88 0.9 CALM 0 4 0 2 1011.6 1011.5 0.0
28/03:00am 9.1 8.3 6.5 84 1.2 CALM 0 2 0 1 1011.5 1011.4 0.0
28/02:30am 9.4 8.4 7.5 88 0.9 SE 2 4 1 2 1011.6 1011.5 0.0
28/02:00am 8.9 8.1 6.5 85 1.1 CALM 0 0 0 0 1011.7 1011.6 0.0
28/01:30am 9.1 7.8 7.7 91 0.7 SE 4 4 2 2 1011.8 1011.7 0.0
28/01:00am 8.8 8.1 6.9 88 0.9 CALM 0 0 0 0 1011.9 1011.8 0.0
28/12:30am 8.7 8.0 7.0 89 0.8 CALM 0 0 0 0 1012.0 1011.9 0.0
28/12:00am 9.4 8.8 7.3 87 1.0 CALM 0 0 0 0 1012.1 1012.0 0.0
 
Date/Time
EST
Temp
°C
App
Temp
°C
Dew
Point
°C
Rel
Hum
%
Delta-T
°C
Wind Press
QNH
hPa
Press
MSL
hPa
Rain since
9am
mm
Dir  Spd
km/h
Gust
km/h
Spd
kts
Gust
kts
27/11:30pm 9.1 8.3 6.5 84 1.2 CALM 0 0 0 0 1012.3 1012.2 0.0
27/11:00pm 10.5 10.0 7.7 83 1.4 CALM 0 0 0 0 1012.3 1012.2 0.0
27/10:30pm 10.5 9.9 7.2 80 1.6 CALM 0 0 0 0 1012.6 1012.5 0.0
27/10:00pm 11.8 10.9 7.7 76 2.0 NE 2 4 1 2 1012.5 1012.4 0.0
27/09:30pm 12.0 11.3 7.1 72 2.4 CALM 0 0 0 0 1012.8 1012.7 0.0
27/09:00pm 13.2 12.6 7.4 68 2.8 CALM 0 0 0 0 1012.9 1012.8 0.0
27/08:30pm 13.7 13.0 7.0 64 3.3 CALM 0 0 0 0 1012.8 1012.7 0.0
27/08:00pm 16.3 14.8 6.7 53 4.7 NE 4 6 2 3 1012.6 1012.5 0.0
27/07:30pm 18.1 17.2 6.0 45 6.0 CALM 0 0 0 0 1012.3 1012.2 0.0
27/07:00pm 20.7 18.0 5.5 37 7.5 W 9 13 5 7 1012.0 1011.9 0.0
27/06:30pm 20.8 18.4 5.2 36 7.7 W 7 13 4 7 1011.7 1011.6 0.0
27/06:00pm 21.8 18.2 4.8 33 8.4 W 13 20 7 11 1011.3 1011.2 0.0
27/05:30pm 23.1 18.9 3.6 28 9.5 W 15 24 8 13 1010.8 1010.7 0.0
27/05:00pm 24.4 20.6 3.7 26 10.2 W 13 20 7 11 1010.3 1010.2 0.0
27/04:30pm 25.4 21.7 4.5 26 10.5 W 13 20 7 11 1010.0 1009.9 0.0
27/04:00pm 26.0 21.8 3.9 24 11.0 W 15 22 8 12 1009.8 1009.7 0.0
27/03:30pm 25.9 23.7 5.5 27 10.5 NW 6 11 3 6 1009.7 1009.6 0.0
27/03:00pm 25.5 23.0 4.0 25 10.7 NNE 6 11 3 6 1010.0 1009.9 0.0
27/02:30pm 25.8 23.3 3.7 24 11.0 NNW 6 9 3 5 1010.3 1010.2 0.0
27/02:00pm 25.5 22.2 4.6 26 10.5 W 11 20 6 11 1010.6 1010.5 0.0
27/01:30pm 24.8 22.1 3.5 25 10.5 SW 7 15 4 8 1011.2 1011.1 0.0
27/01:00pm 24.5 21.1 3.8 26 10.2 SSW 11 20 6 11 1011.6 1011.5 0.0
27/12:30pm 23.9 20.3 3.2 26 10.0 S 11 24 6 13 1012.1 1012.0 0.0
27/12:00pm 23.3 20.0 2.7 26 9.9 SSW 9 15 5 8 1012.4 1012.3 0.0
27/11:30am 22.8 20.2 4.3 30 9.1 WSW 7 17 4 9 1013.1 1013.0 0.0
27/11:00am 22.5 19.9 6.3 35 8.3 WSW 9 19 5 10 1013.7 1013.6 0.0
27/10:30am 21.7 19.0 5.6 35 8.1 SW 9 19 5 10 1014.2 1014.1 0.0
27/10:00am 20.4 16.5 5.2 37 7.5 SW 15 22 8 12 1014.7 1014.6 0.0
27/09:30am 19.7 15.2 4.2 36 7.4 SW 17 24 9 13 1014.9 1014.8 0.0
27/09:00am 18.4 14.9 5.3 42 6.4 SSW 13 20 7 11 1015.0 1014.9 0.0
27/08:30am 17.6 16.0 8.7 56 4.6 SW 7 13 4 7 1015.4 1015.3 0.0
27/08:00am 15.9 13.9 8.6 62 3.7 WSW 9 13 5 7 1015.3 1015.2 0.0
27/07:30am 14.8 12.7 8.1 64 3.4 SW 9 15 5 8 1014.9 1014.8 0.0
27/07:00am 13.3 12.6 8.4 72 2.4 SW 2 6 1 3 1014.3 1014.2 0.0
27/06:30am 12.9 12.2 7.1 68 2.8 CALM 0 2 0 1 1014.0 1013.9 0.0
27/06:00am 11.9 10.8 7.0 72 2.4 E 2 6 1 3 1013.5 1013.4 0.0
27/05:30am 11.7 10.8 6.2 69 2.6 CALM 0 0 0 0 1013.0 1012.9 0.0
27/05:00am 13.8 12.2 6.2 60 3.6 NE 4 7 2 4 1012.6 1012.5 0.0
27/04:30am 13.4 12.1 6.0 61 3.5 SE 2 6 1 3 1011.9 1011.8 0.0
27/04:00am 12.9 11.4 6.7 66 3.0 S 4 11 2 6 1011.9 1011.8 0.0
27/03:30am 12.8 12.1 6.8 67 2.9 CALM 0 4 0 2 1011.6 1011.5 0.0
27/03:00am 13.8 12.3 6.7 62 3.4 SSW 4 6 2 3 1011.5 1011.4 0.0
27/02:30am 14.3 12.6 7.4 63 3.4 S 6 11 3 6 1011.8 1011.7 0.0
27/02:00am 13.9 12.9 7.2 64 3.3 SSW 2 7 1 4 1012.1 1012.0 0.0
27/01:30am 15.1 13.7 7.2 59 3.9 SW 4 6 2 3 1011.8 1011.7 0.0
27/01:00am 15.1 13.7 7.4 60 3.8 SW 4 7 2 4 1012.2 1012.1 0.0
27/12:30am 17.0 15.9 8.4 57 4.4 SW 4 13 2 7 1012.2 1012.1 0.0
27/12:00am 15.9 14.8 10.0 68 3.1 WSW 6 9 3 5 1012.8 1012.7 0.0
 
Date/Time
EST
Temp
°C
App
Temp
°C
Dew
Point
°C
Rel
Hum
%
Delta-T
°C
Wind Press
QNH
hPa
Press
MSL
hPa
Rain since
9am
mm
Dir  Spd
km/h
Gust
km/h
Spd
kts
Gust
kts
26/11:30pm 13.2 13.6 11.3 88 1.0 CALM 0 0 0 0 1012.6 1012.5 0.0
26/11:00pm 14.0 14.8 12.4 90 0.9 CALM 0 0 0 0 1012.4 1012.3 0.0
26/10:30pm 13.3 13.5 11.9 91 0.8 ENE 2 9 1 5 1012.7 1012.6 0.0
26/10:00pm 13.2 13.6 11.3 88 1.0 CALM 0 0 0 0 1012.5 1012.4 0.0
26/09:30pm 14.1 13.9 11.8 86 1.2 NNE 4 6 2 3 1012.4 1012.3 0.0
26/09:00pm 16.0 16.4 12.6 80 1.9 SSE 2 4 1 2 1012.5 1012.4 0.0
26/08:30pm 16.7 17.4 12.3 75 2.4 CALM 0 0 0 0 1012.0 1011.9 0.0
26/08:00pm 17.6 18.4 12.5 72 2.8 CALM 0 0 0 0 1011.7 1011.6 0.0
26/07:30pm 18.6 18.5 12.1 66 3.6 S 4 7 2 4 1011.3 1011.2 0.0
26/07:00pm 20.1 19.6 12.6 62 4.2 NE 7 17 4 9 1011.0 1010.9 0.0
26/06:30pm 20.4 19.8 12.4 60 4.5 NNE 7 15 4 8 1010.8 1010.7 0.0
26/06:00pm 21.3 20.2 11.9 55 5.3 NE 9 17 5 9 1010.2 1010.1 0.0
26/05:30pm 22.9 21.8 10.7 46 6.7 NNE 7 11 4 6 1009.7 1009.6 0.0
26/05:00pm 24.6 22.7 6.8 32 9.3 NNW 6 9 3 5 1009.4 1009.3 0.0
26/04:30pm 26.0 24.3 8.5 33 9.5 NW 7 11 4 6 1009.3 1009.2 0.0
26/04:00pm 26.3 23.6 7.4 30 10.1 NNW 11 17 6 9 1009.0 1008.9 0.0
26/03:30pm 26.0 23.4 6.1 28 10.3 NNW 9 20 5 11 1009.0 1008.9 0.0
26/03:00pm 25.3 23.1 6.0 29 10.0 N 7 17 4 9 1009.0 1008.9 0.0
26/02:30pm 26.1 24.2 7.7 31 9.8 NNE 7 11 4 6 1009.4 1009.3 0.0
26/02:00pm 26.0 24.4 8.9 34 9.3 NNE 7 13 4 7 1009.7 1009.6 0.0
26/01:30pm 25.1 24.4 8.6 35 8.9 WNW 2 7 1 4 1010.1 1010.0 0.0
26/01:00pm 24.4 22.8 8.0 35 8.7 NW 6 15 3 8 1010.5 1010.4 0.0
26/12:30pm 24.2 22.6 8.2 36 8.5 WNW 6 13 3 7 1010.9 1010.8 0.0
26/12:00pm 23.7 22.5 8.2 37 8.2 S 4 7 2 4 1011.5 1011.4 0.0
26/11:30am 23.8 22.5 9.8 41 7.7 WSW 7 13 4 7 1012.1 1012.0 0.0
26/11:00am 23.0 20.6 5.4 32 8.8 S 7 17 4 9 1012.7 1012.6 0.0
26/10:30am 22.9 20.4 8.2 39 7.8 WSW 11 20 6 11 1013.1 1013.0 0.0
26/10:00am 22.3 19.9 8.8 42 7.2 SW 11 17 6 9 1013.3 1013.2 0.0
26/09:30am 21.4 18.8 9.3 46 6.5 WSW 13 20 7 11 1013.6 1013.5 0.0
26/09:00am 20.4 18.4 10.2 52 5.5 W 11 17 6 9 1013.8 1013.7 0.0
26/08:30am 19.3 18.5 11.6 61 4.2 WSW 7 13 4 7 1013.8 1013.7 0.0
26/08:00am 17.4 17.4 12.5 73 2.7 WSW 4 6 2 3 1013.8 1013.7 0.0
26/07:30am 15.0 15.4 11.2 78 2.0 CALM 0 2 0 1 1013.5 1013.4 0.0
26/07:00am 13.5 13.8 11.0 85 1.3 CALM 0 2 0 1 1013.3 1013.2 0.0
26/06:30am 10.6 10.2 9.7 94 0.5 SSW 2 6 1 3 1013.0 1012.9 0.0
26/06:00am 7.9 7.2 7.1 95 0.4 CALM 0 0 0 0 1012.5 1012.4 0.0
26/05:30am 8.0 7.4 7.2 95 0.4 CALM 0 0 0 0 1012.2 1012.1 0.0
26/05:00am 8.7 8.3 8.1 96 0.3 CALM 0 0 0 0 1012.0 1011.9 0.0
26/04:30am 8.7 7.8 7.8 94 0.4 S 2 6 1 3 1011.5 1011.4 0.0
26/04:00am 9.4 8.9 8.0 91 0.7 CALM 0 2 0 1 1011.2 1011.1 0.0
26/03:30am 10.6 10.1 9.5 93 0.6 ENE 2 6 1 3 1011.2 1011.1 0.0
26/03:00am 10.8 10.7 9.4 91 0.7 CALM 0 0 0 0 1011.1 1011.0 0.0
26/02:30am 9.6 9.2 8.4 92 0.6 CALM 0 0 0 0 1011.1 1011.0 0.0
26/02:00am 11.2 10.9 8.8 85 1.2 CALM 0 0 0 0 1010.8 1010.7 0.0
26/01:30am 11.3 11.0 8.5 83 1.4 CALM 0 0 0 0 1010.8 1010.7 0.0
26/01:00am 11.8 11.2 8.8 82 1.5 SSE 2 2 1 1 1011.0 1010.9 0.0
26/12:30am 12.6 12.0 8.9 78 1.9 NNE 2 6 1 3 1011.2 1011.1 0.0
26/12:00am 13.3 12.5 9.5 78 1.9 SSE 4 6 2 3 1011.2 1011.1 0.0

Other Formats:

Comma delimited format used in spreadsheet applications
http://www.bom.gov.au/fwo/IDQ60801/IDQ60801.95575.axf

JavaScript Object Notation format (JSON) in row-major order
http://www.bom.gov.au/fwo/IDQ60801/IDQ60801.95575.json